Time;durP1;ratioP1;P1;durP2;ratioP2;P2;SDS_P1;SDS_P2;PMS_P1;PMS_P2;Temp;Humidity;BMP_temperature;BMP_pressure;BME280_temperature;BME280_humidity;BME280_pressure;Samples;Min_cycle;Max_cycle;Signal;HPM_P1;HPM_P2
2022/08/14 00:02:15;;;;;;;;;4.25;4.25;;;;;26.63;27.68;100189.56;5079582;28;45508;-60
2022/08/14 00:04:41;;;;;;;;;6.75;6.00;;;;;26.62;26.98;100179.72;5079810;27;45331;-62
2022/08/14 00:07:07;;;;;;;;;7.00;7.00;;;;;26.59;27.54;100164.59;5079591;28;45240;-61
2022/08/14 00:09:36;;;;;;;;;5.00;5.00;;;;;26.59;27.24;100171.94;5079896;28;45785;-63
2022/08/14 00:12:04;;;;;;;;;4.75;4.25;;;;;26.53;27.07;100156.34;5080682;28;45433;-62
2022/08/14 00:14:29;;;;;;;;;4.00;2.50;;;;;26.50;27.51;100167.66;5079416;28;45596;-62
2022/08/14 00:16:55;;;;;;;;;4.75;4.75;;;;;26.49;27.50;100155.91;5079037;27;46369;-62
2022/08/14 00:19:20;;;;;;;;;4.50;4.50;;;;;26.41;27.21;100148.72;5078879;28;45339;-61
2022/08/14 00:21:47;;;;;;;;;7.75;6.00;;;;;26.41;27.44;100151.44;5078420;28;45260;-61
2022/08/14 00:24:13;;;;;;;;;4.75;3.50;;;;;26.37;27.61;100141.16;5078793;28;45530;-61
2022/08/14 00:26:38;;;;;;;;;6.75;6.75;;;;;26.35;27.70;100141.31;5077999;28;45335;-61
2022/08/14 00:29:04;;;;;;;;;6.75;6.75;;;;;26.29;27.57;100127.63;5078398;28;45740;-61
2022/08/14 00:31:29;;;;;;;;;5.00;5.00;;;;;26.27;27.64;100129.72;5060123;28;45841;-61
2022/08/14 00:33:55;;;;;;;;;6.50;6.50;;;;;26.25;28.02;100142.72;5078529;28;45559;-59
2022/08/14 00:36:22;;;;;;;;;5.00;5.00;;;;;26.08;27.80;100129.38;5089920;27;46157;-64
2022/08/14 00:38:48;;;;;;;;;7.00;5.75;;;;;26.07;28.29;100129.59;5099095;27;45509;-61
2022/08/14 00:41:13;;;;;;;;;7.00;5.00;;;;;25.99;28.46;100127.84;5080107;27;45414;-60
2022/08/14 00:43:39;;;;;;;;;4.00;4.00;;;;;25.94;28.30;100121.31;5080721;27;45322;-60
2022/08/14 00:46:07;;;;;;;;;4.00;4.00;;;;;25.93;28.30;100127.81;5096656;27;45459;-61
2022/08/14 00:48:33;;;;;;;;;8.50;7.75;;;;;25.87;28.50;100127.53;5098101;27;45297;-61
2022/08/14 00:50:58;;;;;;;;;4.00;4.00;;;;;25.80;28.69;100106.72;5098668;27;45317;-61
2022/08/14 00:53:24;;;;;;;;;5.75;5.75;;;;;25.85;28.52;100121.44;5098050;27;45809;-61
2022/08/14 00:55:54;;;;;;;;;5.00;5.00;;;;;25.85;28.75;100121.44;5079829;27;45794;-61
2022/08/14 00:58:29;;;;;;;;;4.50;4.50;;;;;25.86;28.73;100123.13;5097166;27;45461;-60
2022/08/14 01:01:08;;;;;;;;;5.50;4.00;;;;;25.84;28.89;100117.03;5098345;27;45349;-61
2022/08/14 01:03:38;;;;;;;;;5.50;5.00;;;;;25.85;28.63;100113.25;5098391;27;45235;-62
2022/08/14 01:06:05;;;;;;;;;6.00;6.00;;;;;25.82;28.82;100110.94;5099567;27;45401;-63
2022/08/14 01:08:31;;;;;;;;;4.75;4.50;;;;;25.75;28.97;100101.00;5098292;27;45473;-61
2022/08/14 01:10:58;;;;;;;;;5.00;5.00;;;;;25.71;28.97;100102.44;5098869;27;45338;-61
2022/08/14 01:13:32;;;;;;;;;6.00;6.00;;;;;25.65;29.16;100093.13;5098996;27;45540;-61
2022/08/14 01:16:00;;;;;;;;;4.50;4.50;;;;;25.58;29.14;100075.91;5097814;27;46375;-60
2022/08/14 01:21:16;;;;;;;;;4.00;4.00;;;;;25.56;29.42;100069.81;5098260;27;45294;-61
2022/08/14 01:23:48;;;;;;;;;4.25;4.25;;;;;25.57;29.15;100080.50;5098247;27;45623;-61
2022/08/14 01:26:19;;;;;;;;;5.00;5.00;;;;;25.57;29.10;100079.69;5079767;27;45463;-60
2022/08/14 01:28:46;;;;;;;;;5.00;4.00;;;;;25.54;29.46;100071.91;5097493;27;45268;-60
2022/08/14 01:31:15;;;;;;;;;5.50;5.50;;;;;25.52;29.38;100074.81;5098384;27;45825;-61
2022/08/14 01:33:45;;;;;;;;;4.50;4.50;;;;;25.53;29.31;100071.06;5098541;27;45568;-63
2022/08/14 01:36:11;;;;;;;;;6.50;5.25;;;;;25.50;29.42;100073.31;5088662;27;46315;-61
2022/08/14 01:38:39;;;;;;;;;6.00;4.00;;;;;25.42;29.49;100066.13;5077334;28;45886;-61
2022/08/14 01:41:11;;;;;;;;;5.00;5.00;;;;;25.45;29.64;100081.22;5077037;28;45390;-61
2022/08/14 01:43:49;;;;;;;;;5.00;5.00;;;;;25.43;29.48;100084.16;5077078;28;45469;-61
2022/08/14 01:46:17;;;;;;;;;6.00;6.00;;;;;25.42;30.04;100078.91;5076711;27;45460;-60
2022/08/14 01:48:44;;;;;;;;;7.50;6.00;;;;;25.40;29.78;100070.09;5075774;28;45588;-61
2022/08/14 01:51:11;;;;;;;;;4.00;4.00;;;;;25.35;29.73;100065.22;5076935;28;45291;-61
2022/08/14 01:53:40;;;;;;;;;7.00;7.00;;;;;25.36;29.73;100079.66;5058637;28;45372;-61
2022/08/14 01:56:06;;;;;;;;;5.00;5.00;;;;;25.34;30.01;100073.56;5076825;27;47058;-60
2022/08/14 01:58:31;;;;;;;;;6.50;5.75;;;;;25.34;29.99;100077.16;5059174;28;45398;-60
2022/08/14 02:00:57;;;;;;;;;6.00;5.00;;;;;25.36;29.86;100074.22;5077923;27;45326;-61
2022/08/14 02:03:29;;;;;;;;;4.00;4.00;;;;;25.27;30.41;100063.47;5077288;28;45462;-60
2022/08/14 02:05:58;;;;;;;;;4.00;4.00;;;;;25.26;30.29;100071.81;5076476;28;46342;-60
2022/08/14 02:08:27;;;;;;;;;8.50;5.00;;;;;25.17;30.33;100060.22;5076636;28;45251;-61
2022/08/14 02:11:15;;;;;;;;;7.00;7.00;;;;;25.07;30.60;100067.03;5076824;28;45496;-61
2022/08/14 02:13:39;;;;;;;;;5.75;5.75;;;;;25.03;30.80;100069.28;5076625;28;45576;-61
2022/08/14 02:16:06;;;;;;;;;4.50;4.50;;;;;24.99;30.77;100070.66;5076392;28;45558;-61
2022/08/14 02:18:32;;;;;;;;;5.25;5.25;;;;;24.94;31.08;100059.50;5076646;28;45493;-60
2022/08/14 02:20:58;;;;;;;;;5.25;4.00;;;;;24.91;31.05;100057.19;5075530;28;45404;-62
2022/08/14 02:23:24;;;;;;;;;5.00;5.00;;;;;24.83;30.98;100039.09;5076551;28;45501;-60
2022/08/14 02:25:49;;;;;;;;;5.00;5.00;;;;;24.87;30.52;100053.16;5076457;28;46610;-61
2022/08/14 02:28:14;;;;;;;;;4.00;4.00;;;;;24.86;30.82;100043.31;5076609;28;45329;-61
2022/08/14 02:30:40;;;;;;;;;5.00;5.00;;;;;24.90;30.77;100041.91;5077174;28;45268;-61
2022/08/14 02:33:06;;;;;;;;;5.67;5.67;;;;;24.89;30.81;100035.63;5077166;27;45441;-60
2022/08/14 02:35:31;;;;;;;;;6.00;4.00;;;;;24.89;31.05;100026.63;5079340;27;45649;-61
2022/08/14 02:37:57;;;;;;;;;7.50;5.00;;;;;24.88;31.11;100027.66;5078730;27;45414;-62
2022/08/14 02:40:23;;;;;;;;;4.75;4.75;;;;;24.86;31.22;100037.88;5077867;27;45413;-62
2022/08/14 02:42:48;;;;;;;;;3.75;3.75;;;;;24.82;30.81;100036.56;5096899;27;45358;-61
2022/08/14 02:45:14;;;;;;;;;5.00;5.00;;;;;24.81;31.18;100032.16;5077841;27;46791;-61
2022/08/14 02:47:39;;;;;;;;;6.25;4.50;;;;;24.72;31.46;100026.00;5078410;27;45491;-61
2022/08/14 02:50:05;;;;;;;;;4.50;4.00;;;;;24.66;31.13;100026.78;5096703;27;45301;-61
2022/08/14 02:52:32;;;;;;;;;5.00;5.00;;;;;24.63;31.85;100028.00;5096796;27;45553;-61
2022/08/14 02:54:58;;;;;;;;;6.00;4.50;;;;;24.64;31.38;100020.69;5096709;27;45583;-63
2022/08/14 02:57:25;;;;;;;;;4.00;4.00;;;;;24.59;31.36;100013.06;5095498;27;45367;-61
2022/08/14 02:59:52;;;;;;;;;4.00;4.00;;;;;24.56;31.61;100005.31;5099300;27;45306;-61
2022/08/14 03:02:17;;;;;;;;;4.00;4.00;;;;;24.38;31.76;99991.28;5100773;27;45587;-62
2022/08/14 03:04:43;;;;;;;;;5.50;5.50;;;;;24.42;31.91;100004.31;5100096;27;45612;-65
2022/08/14 03:07:08;;;;;;;;;4.33;4.33;;;;;24.43;31.55;100010.59;5098795;27;45449;-61
2022/08/14 03:09:38;;;;;;;;;4.00;4.00;;;;;24.47;31.68;100020.03;5100316;27;45711;-61
2022/08/14 03:12:05;;;;;;;;;5.00;4.00;;;;;24.30;31.98;99988.66;5082121;27;45529;-60
2022/08/14 03:14:34;;;;;;;;;6.00;4.75;;;;;24.31;31.95;99995.78;5100202;27;45456;-61
2022/08/14 03:16:59;;;;;;;;;8.00;6.00;;;;;24.47;32.02;100019.19;5100628;27;45446;-60
2022/08/14 03:19:25;;;;;;;;;5.33;5.33;;;;;24.45;32.15;100013.09;5100216;27;45489;-60
2022/08/14 03:21:50;;;;;;;;;5.33;5.33;;;;;24.43;32.28;100016.03;5100263;27;45626;-61
2022/08/14 03:24:17;;;;;;;;;5.67;5.67;;;;;24.39;32.10;100009.28;5100232;27;45898;-61
2022/08/14 03:26:45;;;;;;;;;5.00;5.00;;;;;24.47;32.17;100019.19;5100343;27;45243;-60
2022/08/14 03:29:12;;;;;;;;;6.25;4.00;;;;;24.47;32.25;100020.03;5100712;27;45300;-61
2022/08/14 03:31:39;;;;;;;;;6.00;6.00;;;;;24.47;32.02;100016.47;5100236;27;45567;-62
2022/08/14 03:34:09;;;;;;;;;5.33;5.33;;;;;24.45;32.10;100008.50;5081052;27;46529;-60
2022/08/14 03:36:35;;;;;;;;;7.00;6.00;;;;;24.46;31.84;100010.19;5087167;27;45780;-61
2022/08/14 03:39:04;;;;;;;;;4.33;4.33;;;;;24.45;31.78;100003.06;5080486;28;45441;-63
2022/08/14 03:41:30;;;;;;;;;5.33;5.33;;;;;24.46;32.01;100003.91;5079822;27;45572;-61
2022/08/14 03:44:01;;;;;;;;;8.00;6.67;;;;;24.43;31.75;100010.59;5078766;28;46447;-61
2022/08/14 03:46:34;;;;;;;;;3.00;3.00;;;;;24.38;31.89;100002.16;5078940;28;45386;-60
2022/08/14 03:49:03;;;;;;;;;6.00;6.00;;;;;24.36;32.19;100002.38;5078478;28;45453;-60
2022/08/14 03:51:29;;;;;;;;;5.33;5.33;;;;;24.40;32.34;100010.97;5079227;28;45578;-60
2022/08/14 03:54:00;;;;;;;;;8.75;6.75;;;;;24.38;32.18;100019.31;5077428;28;45408;-61
2022/08/14 03:56:26;;;;;;;;;7.50;7.50;;;;;24.39;32.08;100020.16;5079496;28;45385;-61
2022/08/14 03:58:54;;;;;;;;;6.75;6.75;;;;;24.35;32.44;100021.53;5079613;28;45475;-62
2022/08/14 04:01:22;;;;;;;;;6.00;6.00;;;;;24.37;32.31;100027.66;5078754;27;45406;-61
2022/08/14 04:03:48;;;;;;;;;5.00;5.00;;;;;24.36;32.39;100023.25;5078424;28;47105;-61
2022/08/14 04:06:15;;;;;;;;;5.67;5.67;;;;;24.35;32.55;100035.13;5078684;27;45392;-61
2022/08/14 04:08:42;;;;;;;;;5.75;5.75;;;;;24.32;32.37;100033.66;5078623;28;45382;-60
2022/08/14 04:11:09;;;;;;;;;6.00;6.00;;;;;24.34;32.69;100044.31;5077910;28;45290;-61
2022/08/14 04:13:40;;;;;;;;;6.00;6.00;;;;;24.32;32.73;100035.50;5060334;28;46806;-60
2022/08/14 04:16:14;;;;;;;;;9.00;6.00;;;;;24.34;32.54;100049.75;5078558;28;45312;-60
2022/08/14 04:18:45;;;;;;;;;5.00;5.00;;;;;24.35;32.76;100040.56;5060339;28;45411;-59
2022/08/14 04:21:13;;;;;;;;;5.00;5.00;;;;;24.34;32.70;100033.44;5078586;28;45307;-60
2022/08/14 04:23:39;;;;;;;;;7.00;6.00;;;;;24.31;32.88;100033.84;5078050;28;45438;-61
2022/08/14 04:26:07;;;;;;;;;5.00;5.00;;;;;24.32;32.86;100025.50;5079198;27;45317;-60
2022/08/14 04:28:35;;;;;;;;;6.00;6.00;;;;;24.31;32.79;100033.84;5077305;28;45450;-60
2022/08/14 04:31:01;;;;;;;;;4.67;4.67;;;;;24.34;33.34;100031.56;5078811;27;45403;-61
2022/08/14 04:33:27;;;;;;;;;6.00;6.00;;;;;24.38;32.62;100030.19;5078289;28;46027;-61
2022/08/14 04:35:53;;;;;;;;;5.75;5.75;;;;;24.41;32.76;100031.69;5085052;27;45389;-61
2022/08/14 04:43:49;;;;;;;;;5.75;5.75;;;;;24.41;32.36;100013.50;5098658;27;45275;-60
2022/08/14 04:46:17;;;;;;;;;5.00;5.00;;;;;24.44;32.56;100009.53;5098512;27;45243;-61
2022/08/14 04:48:42;;;;;;;;;5.00;5.00;;;;;24.44;32.26;100000.56;5098591;27;45401;-59
2022/08/14 04:51:13;;;;;;;;;5.25;5.25;;;;;24.48;32.19;100002.72;5099587;27;45594;-59
2022/08/14 04:53:43;;;;;;;;;5.00;5.00;;;;;24.53;32.07;100002.13;5099108;27;45891;-61
2022/08/14 04:56:11;;;;;;;;;5.00;5.00;;;;;24.54;32.19;99995.66;5098888;27;45322;-60
2022/08/14 04:58:37;;;;;;;;;5.25;5.00;;;;;24.55;32.28;99995.47;5098703;27;45306;-60
2022/08/14 05:01:05;;;;;;;;;5.00;5.00;;;;;24.55;32.44;99984.59;5098824;27;45652;-59
2022/08/14 05:03:34;;;;;;;;;7.67;6.00;;;;;24.55;32.47;99973.72;5098141;27;45363;-61
2022/08/14 05:06:03;;;;;;;;;4.00;4.00;;;;;24.59;31.79;99975.00;5098087;27;45539;-60
2022/08/14 05:08:30;;;;;;;;;5.75;5.75;;;;;24.63;31.85;99972.78;5098486;27;45316;-60
2022/08/14 05:10:57;;;;;;;;;5.25;5.25;;;;;24.57;32.11;99968.94;5098755;27;45464;-61
2022/08/14 05:13:25;;;;;;;;;7.00;6.67;;;;;24.54;32.89;99965.75;5097662;27;46362;-61
2022/08/14 05:15:52;;;;;;;;;6.00;6.00;;;;;24.57;32.50;99971.66;5098148;27;45385;-61
2022/08/14 05:18:20;;;;;;;;;6.33;5.00;;;;;24.57;32.23;99963.50;5098103;27;45322;-60
2022/08/14 05:20:49;;;;;;;;;5.33;4.00;;;;;24.63;32.20;99970.91;5098935;27;45630;-62
2022/08/14 05:23:18;;;;;;;;;6.75;4.75;;;;;24.63;32.37;99968.19;5098307;27;46254;-61
2022/08/14 05:25:46;;;;;;;;;5.00;5.00;;;;;24.59;32.40;99972.28;5079946;27;45395;-60
2022/08/14 05:28:21;;;;;;;;;5.00;5.00;;;;;24.57;32.25;99981.69;5098633;27;45477;-60
2022/08/14 05:30:52;;;;;;;;;5.00;5.00;;;;;24.56;32.13;99972.69;5080241;27;45286;-60
2022/08/14 05:33:20;;;;;;;;;5.00;5.00;;;;;24.65;32.21;99987.84;5097680;27;47230;-60
2022/08/14 05:35:47;;;;;;;;;5.00;5.00;;;;;24.62;32.56;99988.25;5091923;27;45346;-61
2022/08/14 05:38:18;;;;;;;;;6.00;4.50;;;;;24.65;32.62;100004.19;5077409;27;45420;-61
2022/08/14 05:40:44;;;;;;;;;5.00;5.00;;;;;24.64;32.57;99986.19;5078671;28;45330;-60
2022/08/14 05:43:10;;;;;;;;;6.00;6.00;;;;;24.65;32.28;99985.16;5080824;28;46120;-62
2022/08/14 05:45:36;;;;;;;;;7.00;6.00;;;;;24.64;32.38;99983.47;5079702;27;45358;-60
2022/08/14 05:48:03;;;;;;;;;5.25;5.25;;;;;24.60;32.28;99968.53;5078606;28;45479;-60
2022/08/14 05:50:29;;;;;;;;;4.00;4.00;;;;;24.57;32.59;99954.50;5078011;28;45327;-61
2022/08/14 05:52:54;;;;;;;;;5.00;5.00;;;;;24.58;33.00;99962.47;5077514;27;45415;-60
2022/08/14 05:55:21;;;;;;;;;5.33;5.33;;;;;24.59;32.72;99955.16;5078227;27;45319;-61
2022/08/14 05:57:49;;;;;;;;;6.75;6.75;;;;;24.56;32.73;99948.22;5078076;28;45397;-61
2022/08/14 06:00:17;;;;;;;;;5.33;5.00;;;;;24.54;32.71;99950.28;5077777;28;45594;-60
2022/08/14 06:02:43;;;;;;;;;6.33;5.00;;;;;24.51;33.29;99963.44;5058745;28;46153;-60
2022/08/14 06:05:08;;;;;;;;;5.00;5.00;;;;;24.43;33.07;99961.66;5077627;28;45395;-61
2022/08/14 06:07:35;;;;;;;;;4.75;4.75;;;;;24.42;33.31;99965.41;5077399;28;45319;-60
2022/08/14 06:10:01;;;;;;;;;7.33;6.00;;;;;24.39;33.54;99966.63;5077269;27;45569;-61
2022/08/14 06:12:26;;;;;;;;;4.00;4.00;;;;;24.35;33.46;99953.59;5076611;28;45730;-63
2022/08/14 06:14:52;;;;;;;;;5.00;5.00;;;;;24.35;33.09;99965.34;5076944;28;45231;-61
2022/08/14 06:17:17;;;;;;;;;4.00;4.00;;;;;24.33;33.30;99959.22;5077464;28;45367;-60
2022/08/14 06:19:42;;;;;;;;;6.25;6.00;;;;;24.35;33.54;99959.03;5077506;27;45380;-61
2022/08/14 06:22:08;;;;;;;;;8.00;7.00;;;;;24.38;33.38;99972.28;5077250;27;46245;-61
2022/08/14 06:24:33;;;;;;;;;5.50;5.50;;;;;24.35;33.40;99959.03;5076675;28;45356;-60
2022/08/14 06:26:59;;;;;;;;;5.67;5.67;;;;;24.34;34.15;99941.06;5076484;28;45430;-60
2022/08/14 06:29:24;;;;;;;;;5.33;5.33;;;;;24.32;33.78;99957.56;5076824;27;45172;-61
2022/08/14 06:31:50;;;;;;;;;2.67;2.67;;;;;24.23;33.57;99930.66;5076891;27;45934;-61
2022/08/14 06:34:15;;;;;;;;;5.00;5.00;;;;;24.42;33.56;99954.53;5075851;28;45351;-62
2022/08/14 06:36:41;;;;;;;;;4.00;4.00;;;;;24.37;33.45;99946.13;5090764;27;45350;-62
2022/08/14 06:39:07;;;;;;;;;5.67;5.67;;;;;24.36;33.29;99955.31;5097570;27;45605;-62
2022/08/14 06:41:32;;;;;;;;;6.00;5.00;;;;;24.37;33.29;99948.84;5097131;27;46509;-61
2022/08/14 06:43:58;;;;;;;;;5.00;5.00;;;;;24.37;33.74;99957.00;5096907;27;45408;-61
2022/08/14 06:46:23;;;;;;;;;5.00;5.00;;;;;24.38;33.56;99962.25;5097612;27;45436;-64
2022/08/14 06:48:49;;;;;;;;;5.00;5.00;;;;;24.32;33.72;99948.56;5097284;27;45604;-62
2022/08/14 06:51:14;;;;;;;;;4.00;4.00;;;;;24.39;33.62;99974.78;5078642;27;46934;-61
2022/08/14 06:53:39;;;;;;;;;4.00;4.00;;;;;24.29;33.93;99955.19;5097116;27;45369;-61
2022/08/14 06:56:05;;;;;;;;;6.75;5.75;;;;;24.38;33.69;99966.84;5078608;27;45444;-60
2022/08/14 06:58:31;;;;;;;;;5.00;5.00;;;;;24.42;34.02;99968.13;5078328;27;45501;-61
2022/08/14 07:06:24;;;;;;;;;8.00;6.67;;;;;24.50;33.42;99978.91;5096461;27;45467;-60
2022/08/14 07:08:51;;;;;;;;;7.25;5.75;;;;;24.44;33.48;99952.47;5096858;27;45351;-61
2022/08/14 07:11:16;;;;;;;;;5.67;5.67;;;;;24.61;33.81;99981.13;5096528;27;45541;-62
2022/08/14 07:13:42;;;;;;;;;7.67;6.00;;;;;24.64;33.58;99983.47;5096674;27;45335;-61
2022/08/14 07:16:08;;;;;;;;;8.00;5.00;;;;;24.60;33.74;99981.28;5096273;27;45230;-61
2022/08/14 07:18:35;;;;;;;;;6.67;6.67;;;;;24.67;32.98;99976.78;5096916;27;45251;-61
2022/08/14 07:21:03;;;;;;;;;6.67;6.67;;;;;24.73;33.07;99981.44;5096775;27;46280;-61
2022/08/14 07:23:29;;;;;;;;;9.67;8.67;;;;;24.81;33.37;99985.94;5096116;27;45479;-60
2022/08/14 07:25:55;;;;;;;;;6.25;6.00;;;;;24.84;32.84;99990.97;5096573;27;45372;-61
2022/08/14 07:28:27;;;;;;;;;5.75;5.75;;;;;24.81;33.10;99985.94;5078136;27;45517;-59
2022/08/14 07:30:56;;;;;;;;;7.33;7.33;;;;;24.78;33.01;99980.88;5095224;27;46343;-65
2022/08/14 07:33:23;;;;;;;;;3.25;3.25;;;;;24.83;33.15;99990.13;5097141;27;45271;-61
2022/08/14 07:35:49;;;;;;;;;8.00;6.25;;;;;24.88;32.97;99973.25;5091211;27;45266;-62
2022/08/14 07:38:19;;;;;;;;;8.50;6.00;;;;;24.96;33.01;99964.94;5079499;27;45322;-60
2022/08/14 07:40:46;;;;;;;;;4.50;4.50;;;;;25.02;33.25;99975.09;5079140;28;47089;-61
2022/08/14 07:43:12;;;;;;;;;6.00;6.00;;;;;24.97;32.91;99970.19;5076825;28;45423;-61
2022/08/14 07:45:39;;;;;;;;;5.75;4.50;;;;;25.15;33.20;99994.28;5075695;28;45297;-60
2022/08/14 07:48:05;;;;;;;;;6.50;6.50;;;;;25.16;32.81;99982.34;5079641;28;45504;-62
2022/08/14 07:50:31;;;;;;;;;6.25;6.25;;;;;25.22;32.72;99976.13;5078533;27;46115;-59
2022/08/14 07:52:58;;;;;;;;;4.75;4.75;;;;;25.28;32.63;99967.19;5085855;27;45508;-60
2022/08/14 07:55:23;;;;;;;;;7.00;5.00;;;;;25.30;31.86;99958.81;5081157;27;45291;-59
2022/08/14 07:57:50;;;;;;;;;4.00;4.00;;;;;25.35;31.70;99953.63;5093615;27;45408;-61
2022/08/14 08:00:21;;;;;;;;;2.00;2.00;;;;;25.42;31.82;99945.50;5099374;27;46339;-60
2022/08/14 08:02:50;;;;;;;;;4.00;4.00;;;;;25.47;31.42;99940.31;5099236;27;45318;-60
2022/08/14 08:05:17;;;;;;;;;5.00;5.00;;;;;25.50;31.04;99957.06;5099219;27;45335;-61
2022/08/14 08:07:44;;;;;;;;;4.75;4.25;;;;;25.47;31.39;99948.47;5099231;27;45268;-61
2022/08/14 08:10:30;;;;;;;;;4.00;4.00;;;;;25.51;31.00;99966.09;5086991;27;46267;-59
2022/08/14 08:13:09;;;;;;;;;4.00;4.00;;;;;25.51;31.49;99966.09;5060210;28;46059;-60
2022/08/14 08:15:41;;;;;;;;;5.00;5.00;;;;;25.63;31.28;99961.78;5078747;28;45473;-60
2022/08/14 08:18:10;;;;;;;;;7.50;5.50;;;;;25.71;31.41;99961.66;5078899;28;45316;-62
2022/08/14 08:20:47;;;;;;;;;6.00;4.75;;;;;25.77;31.17;99960.84;5078496;27;45442;-62
2022/08/14 08:23:15;;;;;;;;;9.00;5.00;;;;;25.72;31.18;99959.78;5078952;28;45364;-62
2022/08/14 08:25:42;;;;;;;;;6.25;6.25;;;;;25.75;31.34;99968.38;5079036;27;45260;-61
2022/08/14 08:28:22;;;;;;;;;6.00;4.00;;;;;25.75;31.59;99962.94;5097337;27;45362;-61
2022/08/14 08:30:53;;;;;;;;;4.00;4.00;;;;;25.91;31.53;99966.38;5098918;27;45693;-61
2022/08/14 08:33:20;;;;;;;;;3.00;3.00;;;;;26.02;31.16;99974.84;5099494;27;45411;-60
2022/08/14 08:35:47;;;;;;;;;6.00;6.00;;;;;26.19;30.83;99979.97;5081058;27;45511;-62
2022/08/14 08:38:16;;;;;;;;;4.00;4.00;;;;;26.34;31.23;99978.78;5098829;27;45480;-63
2022/08/14 08:40:43;;;;;;;;;3.50;3.50;;;;;26.60;30.79;99993.59;5080378;27;45358;-60
2022/08/14 08:43:29;;;;;;;;;6.40;4.20;;;;;26.94;30.53;99990.75;5098600;27;45337;-64
2022/08/14 08:46:02;;;;;;;;;5.00;5.00;;;;;27.33;29.71;99979.06;5082549;27;45362;-60
2022/08/14 08:48:29;;;;;;;;;4.00;4.00;;;;;27.70;29.13;99973.22;5098618;27;45446;-60
2022/08/14 08:51:01;;;;;;;;;4.00;4.00;;;;;28.14;29.02;99976.06;5098149;27;46185;-62
2022/08/14 08:53:31;;;;;;;;;6.00;6.00;;;;;28.56;28.84;99979.28;5098256;27;45319;-61
2022/08/14 08:55:58;;;;;;;;;6.60;6.60;;;;;28.97;28.50;99953.41;5098560;27;45643;-62
2022/08/14 08:58:24;;;;;;;;;6.50;4.75;;;;;29.18;28.90;99955.78;5098282;27;45529;-62
2022/08/14 09:00:52;;;;;;;;;5.00;5.00;;;;;29.25;28.78;99945.59;5090876;27;46051;-62
2022/08/14 09:03:24;;;;;;;;;7.20;7.20;;;;;29.27;29.70;99946.19;5077827;28;45529;-60
2022/08/14 09:05:53;;;;;;;;;9.75;8.00;;;;;29.22;30.14;99939.72;5059796;28;45435;-61
2022/08/14 09:08:21;;;;;;;;;5.00;5.00;;;;;29.37;29.60;99934.75;5078189;28;45616;-61
2022/08/14 09:10:47;;;;;;;;;7.00;6.00;;;;;29.28;29.37;99925.97;5077887;28;46143;-62
2022/08/14 09:13:16;;;;;;;;;6.60;6.60;;;;;29.25;29.63;99937.38;5077881;28;45375;-61
2022/08/14 09:15:44;;;;;;;;;8.00;8.00;;;;;29.26;30.02;99949.16;5059472;28;45455;-61
2022/08/14 09:18:11;;;;;;;;;9.25;7.75;;;;;29.36;29.77;99961.31;5059393;28;45761;-60
2022/08/14 09:20:39;;;;;;;;;4.00;4.00;;;;;29.35;30.04;99951.41;5077298;28;46979;-63
2022/08/14 09:23:06;;;;;;;;;8.20;8.20;;;;;29.40;30.29;99945.25;5077347;28;45445;-60
2022/08/14 09:25:32;;;;;;;;;7.20;7.20;;;;;29.54;30.55;99933.13;5077673;28;45307;-62
2022/08/14 09:27:57;;;;;;;;;8.25;6.00;;;;;29.61;30.94;99922.13;5077568;27;45600;-61
2022/08/14 09:30:23;;;;;;;;;6.25;6.25;;;;;29.73;30.60;99934.03;5077578;27;46349;-61
2022/08/14 09:33:03;;;;;;;;;5.25;5.25;;;;;29.79;30.09;99924.88;5077343;28;45498;-62
2022/08/14 09:35:48;;;;;;;;;5.80;5.80;;;;;29.92;30.39;99946.66;5077132;28;45251;-62
2022/08/14 09:39:02;;;;;;;;;4.20;4.20;;;;;30.06;30.26;99957.50;5077666;28;45489;-63
2022/08/14 09:41:55;;;;;;;;;5.40;5.40;;;;;30.15;29.96;99945.19;5015715;28;45279;-61
2022/08/14 09:44:49;;;;;;;;;5.00;5.00;;;;;30.32;29.78;99948.13;5077782;28;45411;-62
2022/08/14 09:47:15;;;;;;;;;7.80;6.20;;;;;30.40;29.71;99947.81;5077410;28;45350;-61
2022/08/14 09:49:42;;;;;;;;;8.00;6.50;;;;;30.47;29.72;99951.31;5077521;27;45414;-60
2022/08/14 09:52:11;;;;;;;;;4.60;4.60;;;;;30.55;29.51;99956.47;5077155;28;45881;-62
2022/08/14 09:54:41;;;;;;;;;4.00;4.00;;;;;30.76;29.33;99950.53;5076970;28;45284;-61
2022/08/14 09:57:09;;;;;;;;;6.20;6.20;;;;;30.93;29.21;99953.44;5077457;28;45317;-60
2022/08/14 09:59:46;;;;;;;;;6.00;5.20;;;;;30.91;29.47;99941.03;5076060;28;45595;-61
2022/08/14 10:02:38;;;;;;;;;5.00;4.20;;;;;31.04;29.07;99949.88;5095880;27;46183;-60
2022/08/14 10:05:05;;;;;;;;;6.00;5.00;;;;;31.19;29.17;99948.63;5092422;27;45518;-61
2022/08/14 10:07:36;;;;;;;;;4.80;4.80;;;;;31.17;28.69;99937.00;5097472;27;45330;-63
2022/08/14 10:10:04;;;;;;;;;5.80;5.80;;;;;31.30;28.87;99945.06;5096540;27;45490;-62
2022/08/14 10:12:44;;;;;;;;;5.00;5.00;;;;;31.47;28.57;99935.03;5078476;27;45751;-62
2022/08/14 10:15:18;;;;;;;;;6.20;5.00;;;;;31.47;28.73;99953.44;5097014;27;45291;-61
2022/08/14 10:17:45;;;;;;;;;4.40;3.40;;;;;31.46;28.94;99949.84;5097121;27;45402;-60
2022/08/14 10:20:11;;;;;;;;;3.80;3.80;;;;;31.59;29.18;99930.38;5097094;27;45392;-60
2022/08/14 10:22:37;;;;;;;;;1.75;1.75;;;;;31.57;28.60;99927.03;5078428;27;46094;-62
2022/08/14 10:25:13;;;;;;;;;5.00;5.00;;;;;31.48;28.84;99933.97;5097013;27;45469;-61
2022/08/14 10:27:39;;;;;;;;;5.20;5.00;;;;;31.24;29.20;99937.75;5097021;27;45374;-62
2022/08/14 10:30:15;;;;;;;;;7.20;6.00;;;;;31.02;28.99;99918.25;5097272;27;45399;-62
2022/08/14 10:32:47;;;;;;;;;4.00;4.00;;;;;31.01;29.64;99931.13;5095910;27;46203;-62
2022/08/14 10:35:14;;;;;;;;;4.80;4.80;;;;;31.03;29.54;99942.72;5096998;27;45364;-62
2022/08/14 10:37:51;;;;;;;;;5.00;5.00;;;;;31.00;29.58;99943.19;5097213;27;45340;-62
2022/08/14 10:40:30;;;;;;;;;5.60;4.00;;;;;30.92;29.57;99938.03;5097164;27;45366;-62
2022/08/14 10:42:55;;;;;;;;;6.60;4.60;;;;;30.79;30.26;99947.31;5097044;27;46413;-64
2022/08/14 10:45:31;;;;;;;;;3.50;3.50;;;;;30.79;29.58;99940.97;5096972;27;45338;-62
2022/08/14 10:47:57;;;;;;;;;5.80;5.80;;;;;30.80;29.60;99942.66;5078878;27;45467;-61
2022/08/14 10:50:34;;;;;;;;;5.00;5.00;;;;;30.75;29.98;99948.84;5078658;27;45679;-61
2022/08/14 10:53:04;;;;;;;;;4.80;4.80;;;;;30.81;29.91;99950.66;5096555;27;45316;-61
2022/08/14 10:55:38;;;;;;;;;5.00;5.00;;;;;30.85;30.42;99945.50;5078025;27;45410;-61
2022/08/14 10:58:10;;;;;;;;;5.40;4.80;;;;;30.81;30.04;99938.84;5096749;27;45459;-62
2022/08/14 11:00:38;;;;;;;;;5.00;5.00;;;;;30.80;29.72;99948.13;5091109;27;45291;-62
2022/08/14 11:03:16;;;;;;;;;4.00;4.00;;;;;30.66;29.38;99943.91;5075950;27;45472;-61
2022/08/14 11:05:45;;;;;;;;;6.60;6.60;;;;;30.62;29.97;99948.16;5076239;28;45406;-62
2022/08/14 11:08:15;;;;;;;;;4.60;4.00;;;;;30.63;30.37;99947.97;5076255;27;45236;-60
2022/08/14 11:10:48;;;;;;;;;6.80;5.20;;;;;30.65;30.08;99945.00;5058504;28;45330;-64
2022/08/14 11:13:22;;;;;;;;;3.20;3.20;;;;;30.67;30.12;99953.81;5075770;28;45519;-62
2022/08/14 11:15:47;;;;;;;;;4.00;4.00;;;;;30.65;30.08;99945.00;5057872;28;46109;-62
2022/08/14 11:18:14;;;;;;;;;5.50;5.50;;;;;30.63;30.27;99952.63;5075963;28;45520;-62
2022/08/14 11:20:53;;;;;;;;;5.00;4.80;;;;;30.61;30.34;99958.31;5078029;28;45496;-61
2022/08/14 11:23:27;;;;;;;;;6.40;6.40;;;;;30.50;30.14;99940.72;5077938;28;47118;-60
2022/08/14 11:25:55;;;;;;;;;7.00;6.00;;;;;30.51;31.17;99955.28;5061372;28;45408;-61
2022/08/14 11:28:24;;;;;;;;;5.60;4.60;;;;;30.49;31.00;99952.78;5079748;28;45380;-61
2022/08/14 11:30:50;;;;;;;;;7.00;7.00;;;;;30.59;31.45;99960.44;5079510;27;45550;-63
2022/08/14 11:33:22;;;;;;;;;6.40;4.60;;;;;30.63;31.21;99958.13;5078868;27;45993;-61
2022/08/14 11:35:48;;;;;;;;;4.20;4.20;;;;;30.57;30.93;99948.00;5079407;28;45594;-61
2022/08/14 11:38:14;;;;;;;;;4.80;4.80;;;;;30.56;30.79;99951.81;5079269;28;45867;-62
2022/08/14 11:40:42;;;;;;;;;5.60;5.60;;;;;30.58;30.46;99949.69;5061093;28;45421;-63
2022/08/14 11:43:08;;;;;;;;;8.60;5.20;;;;;30.50;30.74;99945.38;5079110;27;45414;-61
2022/08/14 11:45:36;;;;;;;;;5.00;5.00;;;;;30.56;30.84;99958.16;5079239;27;45383;-60
2022/08/14 11:48:13;;;;;;;;;5.00;5.00;;;;;30.45;30.98;99945.22;5079097;28;45180;-60
2022/08/14 11:50:38;;;;;;;;;6.25;5.25;;;;;30.38;30.86;99956.28;5078905;28;45451;-62